createdAt,value
2019-05-18T00:00:28.798Z,35.47
2019-05-18T00:04:31.196Z,32.73
2019-05-18T00:08:33.735Z,32.33
2019-05-18T00:12:36.332Z,30.07
2019-05-18T00:16:38.702Z,29.60
2019-05-18T00:20:41.192Z,28.17
2019-05-18T00:24:43.652Z,28.03
2019-05-18T00:28:45.882Z,25.73
2019-05-18T00:32:48.361Z,35.77
2019-05-18T00:36:50.707Z,26.90
2019-05-18T00:40:53.301Z,25.23
2019-05-18T00:44:55.708Z,25.80
2019-05-18T00:48:58.396Z,25.70
2019-05-18T00:53:00.860Z,24.47
2019-05-18T00:57:03.408Z,25.90
2019-05-18T01:01:05.847Z,25.17
2019-05-18T01:05:08.384Z,22.63
2019-05-18T01:09:10.643Z,15.70
2019-05-18T01:13:13.232Z,15.17
2019-05-18T01:17:16.731Z,16.50
2019-05-18T01:21:19.753Z,19.37
2019-05-18T01:25:22.428Z,10.73
2019-05-18T01:29:24.808Z,9.70
2019-05-18T01:33:27.074Z,13.70
2019-05-18T01:37:29.586Z,10.23
2019-05-18T01:41:32.086Z,8.23
2019-05-18T01:45:34.699Z,8.37
2019-05-18T01:49:37.288Z,5.67
2019-05-18T01:53:39.785Z,5.80
2019-05-18T01:57:42.426Z,7.97
2019-05-18T02:01:45.037Z,5.37
2019-05-18T02:05:47.513Z,7.40
2019-05-18T02:09:50.016Z,5.60
2019-05-18T02:13:52.536Z,3.63
2019-05-18T02:17:54.948Z,5.33
2019-05-18T02:21:57.297Z,4.40
2019-05-18T02:25:59.721Z,3.50
2019-05-18T02:30:02.123Z,4.33
2019-05-18T02:34:04.662Z,2.70
2019-05-18T02:38:07.249Z,2.80
2019-05-18T02:42:09.646Z,3.57
2019-05-18T02:46:11.960Z,3.03
2019-05-18T02:50:14.513Z,2.20
2019-05-18T02:54:16.910Z,3.50
2019-05-18T02:58:19.724Z,3.43
2019-05-18T03:02:22.288Z,2.77
2019-05-18T03:06:24.860Z,2.33
2019-05-18T03:10:27.330Z,2.03
2019-05-18T03:14:30.058Z,3.30
2019-05-18T03:18:32.502Z,2.70
2019-05-18T03:22:34.976Z,4.43
2019-05-18T03:26:37.299Z,4.03
2019-05-18T03:30:39.914Z,3.10
2019-05-18T03:34:42.360Z,3.20
2019-05-18T03:38:44.738Z,4.87
2019-05-18T03:42:47.043Z,4.73
2019-05-18T03:46:49.433Z,4.80
2019-05-18T03:50:51.974Z,3.03
2019-05-18T03:54:54.751Z,2.77
2019-05-18T03:58:57.112Z,3.07
2019-05-18T04:03:00.319Z,2.70
2019-05-18T04:07:02.639Z,2.40
2019-05-18T04:11:05.095Z,2.30
2019-05-18T04:15:07.455Z,2.53
2019-05-18T04:19:09.906Z,1.83
2019-05-18T04:23:12.529Z,2.50
2019-05-18T04:27:15.298Z,1.97
2019-05-18T04:31:17.806Z,2.07
2019-05-18T04:35:20.364Z,2.60
2019-05-18T04:39:23.010Z,2.50
2019-05-18T04:43:25.580Z,1.93
2019-05-18T04:47:27.882Z,1.70
2019-05-18T04:51:31.870Z,1.70
2019-05-18T04:55:34.410Z,1.77
2019-05-18T04:59:36.871Z,2.30
2019-05-18T05:03:39.259Z,2.10
2019-05-18T05:07:41.757Z,2.00
2019-05-18T05:11:44.455Z,2.17
2019-05-18T05:15:47.001Z,2.50
2019-05-18T05:19:49.360Z,3.00
2019-05-18T05:23:51.764Z,3.00
2019-05-18T05:27:54.544Z,2.70
2019-05-18T05:31:57.065Z,2.30
2019-05-18T05:35:59.450Z,2.60
2019-05-18T05:40:01.902Z,1.70
2019-05-18T05:44:04.258Z,1.93
2019-05-18T05:48:07.010Z,2.30
2019-05-18T05:52:09.193Z,2.70
2019-05-18T05:56:11.707Z,3.10
2019-05-18T06:00:14.084Z,2.53
2019-05-18T06:13:05.061Z,2.60
